createdAt,value
2023-01-18T00:02:34.568Z,26.43
2023-01-18T00:05:41.211Z,27.67
2023-01-18T00:08:43.491Z,30.20
2023-01-18T00:11:47.439Z,29.93
2023-01-18T00:14:49.672Z,27.27
2023-01-18T00:17:51.865Z,29.17
2023-01-18T00:20:54.183Z,27.77
2023-01-18T00:23:58.938Z,28.57
2023-01-18T00:27:01.289Z,27.37
2023-01-18T00:30:07.864Z,26.20
2023-01-18T00:33:10.174Z,26.00
2023-01-18T00:36:13.256Z,26.43
2023-01-18T00:39:15.943Z,26.37
2023-01-18T00:42:36.428Z,26.50
2023-01-18T00:45:41.010Z,25.83
2023-01-18T00:48:44.271Z,25.70
2023-01-18T00:51:46.595Z,26.47
2023-01-18T00:54:48.581Z,28.67
2023-01-18T00:57:51.007Z,26.23
2023-01-18T01:00:53.530Z,27.77
2023-01-18T01:04:14.369Z,27.13
2023-01-18T01:07:16.346Z,26.50
2023-01-18T01:10:18.792Z,25.77
2023-01-18T01:13:40.685Z,25.83
2023-01-18T01:17:01.672Z,26.57
2023-01-18T01:20:22.467Z,25.10
2023-01-18T01:23:43.887Z,26.60
2023-01-18T01:26:45.843Z,25.97
2023-01-18T01:29:48.312Z,26.70
2023-01-18T01:32:50.566Z,26.73
2023-01-18T01:36:02.235Z,27.30
2023-01-18T01:39:04.740Z,24.23
2023-01-18T01:42:09.758Z,26.57
2023-01-18T01:45:11.779Z,25.03
2023-01-18T01:48:14.036Z,25.40
2023-01-18T01:51:19.654Z,23.83
2023-01-18T01:54:32.453Z,24.53
2023-01-18T01:57:39.417Z,24.67
2023-01-18T02:00:42.137Z,25.07
2023-01-18T02:03:44.217Z,26.10
2023-01-18T02:06:46.436Z,26.70
2023-01-18T02:09:50.438Z,27.10
2023-01-18T02:12:54.737Z,26.70
2023-01-18T02:16:14.614Z,27.20
2023-01-18T02:19:55.247Z,26.40
2023-01-18T02:23:18.557Z,25.87
2023-01-18T02:26:58.291Z,25.87
2023-01-18T02:30:12.739Z,25.23
2023-01-18T02:33:47.061Z,26.07
2023-01-18T02:37:07.174Z,25.53
2023-01-18T02:40:21.935Z,23.03
2023-01-18T02:43:43.600Z,20.97
2023-01-18T02:46:46.441Z,19.73
2023-01-18T02:49:48.394Z,21.70
2023-01-18T02:52:52.077Z,21.47
2023-01-18T02:56:23.111Z,21.27
2023-01-18T02:59:34.692Z,21.60
2023-01-18T03:02:38.964Z,21.10
2023-01-18T03:05:43.653Z,20.70
2023-01-18T03:08:58.071Z,21.17
2023-01-18T03:12:23.733Z,19.47
2023-01-18T03:15:34.319Z,19.60
2023-01-18T03:19:03.027Z,22.20
2023-01-18T03:22:05.550Z,19.13
2023-01-18T03:25:11.302Z,20.53
2023-01-18T03:28:41.147Z,20.90
2023-01-18T03:32:04.088Z,22.63
2023-01-18T03:35:10.584Z,22.77
2023-01-18T03:38:13.782Z,22.00
2023-01-18T03:41:17.472Z,17.90
2023-01-18T03:44:29.392Z,17.73
2023-01-18T03:47:31.955Z,17.70
2023-01-18T03:50:56.206Z,15.73
2023-01-18T03:54:17.869Z,16.30
2023-01-18T03:57:53.963Z,17.33
2023-01-18T04:00:56.073Z,16.90
2023-01-18T04:03:58.422Z,16.43
2023-01-18T04:07:00.470Z,15.13
2023-01-18T04:10:03.068Z,15.33
2023-01-18T04:13:05.071Z,14.57
2023-01-18T04:16:07.600Z,15.47
2023-01-18T04:19:10.819Z,15.50
2023-01-18T04:22:13.966Z,15.00
2023-01-18T04:25:15.955Z,16.63
2023-01-18T04:28:25.473Z,15.87
2023-01-18T04:31:27.574Z,16.40
2023-01-18T04:34:29.870Z,17.97
2023-01-18T04:37:37.033Z,17.77
2023-01-18T04:40:39.348Z,15.60
2023-01-18T04:43:41.340Z,16.40
2023-01-18T04:46:44.018Z,17.30
2023-01-18T04:49:46.067Z,15.63
2023-01-18T04:52:48.319Z,14.47
2023-01-18T04:55:50.363Z,13.70
2023-01-18T04:58:54.349Z,13.93
2023-01-18T05:01:56.320Z,12.87
2023-01-18T05:05:00.082Z,12.30
2023-01-18T05:08:02.252Z,20.00
2023-01-18T05:11:06.433Z,12.07
2023-01-18T05:14:09.006Z,13.07
2023-01-18T05:17:11.299Z,12.03
2023-01-18T05:20:13.720Z,12.37
2023-01-18T05:23:16.103Z,11.83
2023-01-18T05:26:20.974Z,11.27
2023-01-18T05:29:23.715Z,10.73
2023-01-18T05:32:25.899Z,11.03
2023-01-18T05:35:28.709Z,12.03
2023-01-18T05:38:30.883Z,13.17
2023-01-18T05:41:33.162Z,11.63
2023-01-18T05:44:35.380Z,10.87
2023-01-18T05:47:37.934Z,11.80
2023-01-18T05:50:40.918Z,12.33
2023-01-18T05:53:43.223Z,13.60
2023-01-18T05:56:45.262Z,12.90
2023-01-18T05:59:47.522Z,13.07
2023-01-18T06:02:49.504Z,12.83
2023-01-18T06:05:52.649Z,11.87
2023-01-18T06:08:55.239Z,12.33
2023-01-18T06:11:57.518Z,12.23
2023-01-18T06:15:00.499Z,12.90
2023-01-18T06:18:03.086Z,13.30
2023-01-18T06:21:08.130Z,12.10
2023-01-18T06:24:10.720Z,12.83
2023-01-18T06:27:12.681Z,12.77
2023-01-18T06:30:15.707Z,12.17
2023-01-18T06:33:17.814Z,12.57
2023-01-18T06:36:20.096Z,13.50
2023-01-18T06:39:22.125Z,12.80
2023-01-18T06:42:24.464Z,13.50
2023-01-18T06:45:26.835Z,13.23
2023-01-18T06:48:29.866Z,14.30
2023-01-18T06:51:31.898Z,14.77
2023-01-18T06:54:34.270Z,15.13
2023-01-18T06:57:36.267Z,14.77
2023-01-18T07:00:38.846Z,15.00
2023-01-18T07:03:40.863Z,14.30
2023-01-18T07:06:43.264Z,14.50
2023-01-18T07:09:45.287Z,15.43
2023-01-18T07:12:48.913Z,19.43
2023-01-18T07:15:58.000Z,25.90
2023-01-18T07:19:01.869Z,22.03
2023-01-18T07:22:03.898Z,27.40
2023-01-18T07:25:06.651Z,23.73
2023-01-18T07:28:09.193Z,19.27
2023-01-18T07:31:11.534Z,21.13
2023-01-18T07:34:13.824Z,21.37
2023-01-18T07:37:16.147Z,19.33
2023-01-18T07:40:18.638Z,19.20
2023-01-18T07:43:21.104Z,16.13
2023-01-18T07:46:23.602Z,16.03
2023-01-18T07:49:25.925Z,14.77
2023-01-18T07:52:28.112Z,17.47
2023-01-18T07:55:33.553Z,26.97
2023-01-18T07:58:36.226Z,59.83
2023-01-18T08:01:38.677Z,20.47
2023-01-18T08:04:41.914Z,29.73
2023-01-18T08:07:44.278Z,31.80
2023-01-18T08:10:46.284Z,32.03
2023-01-18T08:13:49.374Z,22.97
2023-01-18T08:16:51.391Z,22.23
2023-01-18T08:19:53.684Z,29.50
2023-01-18T08:22:57.474Z,46.17
2023-01-18T08:26:04.014Z,36.13
2023-01-18T08:29:06.427Z,24.93
2023-01-18T08:32:08.763Z,24.33
2023-01-18T08:35:13.267Z,73.60
2023-01-18T08:38:16.622Z,16.30
2023-01-18T08:41:19.828Z,35.27
2023-01-18T08:44:22.207Z,45.87
2023-01-18T08:47:24.172Z,44.00
2023-01-18T08:50:27.593Z,26.93
2023-01-18T08:53:31.318Z,32.30
2023-01-18T08:56:33.638Z,32.30
2023-01-18T08:59:35.654Z,19.17
2023-01-18T09:02:38.026Z,27.80
2023-01-18T09:05:40.313Z,24.20
2023-01-18T09:08:42.882Z,18.20
2023-01-18T09:11:44.830Z,26.27
2023-01-18T09:14:47.144Z,27.73
2023-01-18T09:17:49.140Z,28.83
2023-01-18T09:20:54.218Z,28.77
2023-01-18T09:23:56.368Z,30.23
2023-01-18T09:26:58.701Z,41.23
2023-01-18T09:30:00.934Z,28.00
2023-01-18T09:33:03.294Z,28.17
2023-01-18T09:36:09.672Z,28.17
2023-01-18T09:39:12.155Z,24.03
2023-01-18T09:42:23.725Z,22.90
2023-01-18T09:45:32.465Z,31.77
2023-01-18T09:48:40.030Z,27.13
2023-01-18T09:51:55.117Z,24.57
2023-01-18T09:55:23.503Z,20.70
2023-01-18T09:58:50.523Z,21.63
2023-01-18T10:01:55.932Z,22.53
2023-01-18T10:05:06.030Z,20.03
2023-01-18T10:08:15.405Z,18.30
2023-01-18T10:11:30.072Z,18.93
2023-01-18T10:14:45.308Z,30.03
2023-01-18T10:17:49.472Z,17.27
2023-01-18T10:21:00.041Z,16.57
2023-01-18T10:24:33.430Z,17.80
2023-01-18T10:27:44.384Z,16.67
2023-01-18T10:30:55.891Z,16.17
2023-01-18T10:34:00.928Z,15.67
2023-01-18T10:37:14.698Z,15.70
2023-01-18T10:40:16.938Z,16.53
2023-01-18T10:43:25.091Z,15.70
2023-01-18T10:46:27.988Z,18.10
2023-01-18T10:49:39.420Z,15.77
2023-01-18T10:52:42.326Z,14.03
2023-01-18T10:55:56.578Z,15.07
2023-01-18T10:59:00.403Z,23.40
2023-01-18T11:02:03.235Z,14.80
2023-01-18T11:05:29.046Z,17.07
2023-01-18T11:08:33.919Z,19.07
2023-01-18T11:11:54.697Z,28.00
2023-01-18T11:14:56.976Z,20.77
2023-01-18T11:18:02.834Z,20.83
2023-01-18T11:21:10.345Z,20.80
2023-01-18T11:24:18.479Z,21.17
2023-01-18T11:27:24.008Z,19.67
2023-01-18T11:30:27.271Z,22.43
2023-01-18T11:33:30.938Z,20.27
2023-01-18T11:36:42.323Z,19.30
2023-01-18T11:39:45.600Z,21.10
2023-01-18T11:42:50.272Z,20.27
2023-01-18T11:45:59.590Z,19.57
2023-01-18T11:49:22.382Z,20.97
2023-01-18T11:52:37.720Z,20.47
2023-01-18T11:56:13.485Z,21.77
2023-01-18T11:59:17.966Z,21.90
2023-01-18T12:02:57.361Z,22.10
2023-01-18T12:06:17.081Z,22.13
2023-01-18T12:09:32.316Z,21.37
2023-01-18T12:13:04.937Z,31.40
2023-01-18T12:16:28.891Z,22.80
2023-01-18T12:19:31.147Z,27.30
2023-01-18T12:23:11.916Z,32.63
2023-01-18T12:26:45.335Z,44.23
2023-01-18T12:30:02.242Z,37.57
2023-01-18T12:33:14.388Z,41.23
2023-01-18T12:36:57.881Z,35.20
2023-01-18T12:40:27.587Z,35.83
2023-01-18T12:43:48.514Z,42.83
2023-01-18T12:47:06.069Z,30.70
2023-01-18T12:50:24.882Z,34.40
2023-01-18T12:53:46.035Z,27.33
2023-01-18T12:56:52.953Z,32.63
2023-01-18T13:00:01.639Z,27.83
2023-01-18T13:03:14.835Z,33.73
2023-01-18T13:06:20.031Z,32.83
2023-01-18T13:09:26.681Z,34.80
2023-01-18T13:12:29.359Z,31.50
2023-01-18T13:15:44.164Z,29.97
2023-01-18T13:19:00.116Z,34.80
2023-01-18T13:22:39.683Z,37.47
2023-01-18T13:26:01.212Z,28.67
2023-01-18T13:29:29.226Z,26.63
2023-01-18T13:32:37.728Z,22.43
2023-01-18T13:36:06.312Z,19.77
2023-01-18T13:39:15.544Z,21.90
2023-01-18T13:42:26.193Z,20.73
2023-01-18T13:45:30.337Z,17.70
2023-01-18T13:48:57.510Z,20.83
2023-01-18T13:51:59.856Z,20.13
2023-01-18T13:55:05.548Z,20.47
2023-01-18T13:58:26.386Z,19.57
2023-01-18T14:01:33.413Z,19.17
2023-01-18T14:04:36.257Z,28.07
2023-01-18T14:07:43.177Z,22.63
2023-01-18T14:10:50.142Z,21.47
2023-01-18T14:13:55.259Z,19.63
2023-01-18T14:17:01.128Z,21.70
2023-01-18T14:20:26.354Z,26.87
2023-01-18T14:23:31.700Z,23.73
2023-01-18T14:26:37.409Z,20.83
2023-01-18T14:29:48.687Z,29.33
2023-01-18T14:33:07.269Z,24.90
2023-01-18T14:36:25.728Z,21.83
2023-01-18T14:39:30.134Z,22.07
2023-01-18T14:42:35.040Z,19.87
2023-01-18T14:45:51.206Z,20.70
2023-01-18T14:48:56.347Z,22.00
2023-01-18T14:51:59.371Z,22.23
2023-01-18T14:55:02.491Z,22.07
2023-01-18T14:58:12.290Z,20.53
2023-01-18T15:01:36.210Z,23.17
2023-01-18T15:04:40.166Z,21.70
2023-01-18T15:07:45.949Z,23.70
2023-01-18T15:10:49.062Z,23.67
2023-01-18T15:13:54.398Z,25.53
2023-01-18T15:16:58.729Z,33.20
2023-01-18T15:20:11.810Z,26.97
2023-01-18T15:23:13.990Z,27.57
2023-01-18T15:26:16.307Z,28.27
2023-01-18T15:29:26.061Z,26.53
2023-01-18T15:32:32.360Z,26.50
2023-01-18T15:35:34.560Z,25.57
2023-01-18T15:38:37.262Z,25.77
2023-01-18T15:41:42.061Z,28.07
2023-01-18T15:44:48.220Z,28.37
2023-01-18T15:47:59.811Z,27.73
2023-01-18T15:51:08.439Z,30.57
2023-01-18T15:54:19.573Z,31.73
2023-01-18T15:57:22.985Z,31.73
2023-01-18T16:00:40.699Z,30.23
2023-01-18T16:03:48.771Z,33.53
2023-01-18T16:06:50.775Z,31.53
2023-01-18T16:10:30.326Z,28.63
2023-01-18T16:13:36.134Z,30.00
2023-01-18T16:16:41.188Z,36.40
2023-01-18T16:19:46.066Z,56.30
2023-01-18T16:22:57.961Z,44.83
2023-01-18T16:26:04.544Z,44.33
2023-01-18T16:29:09.035Z,46.83
2023-01-18T16:32:23.095Z,37.27
2023-01-18T16:35:25.677Z,35.67
2023-01-18T16:38:27.771Z,30.87
2023-01-18T16:41:32.061Z,29.97
2023-01-18T16:44:34.158Z,29.77
2023-01-18T16:48:02.763Z,31.00
2023-01-18T16:51:19.442Z,31.97
2023-01-18T16:54:23.138Z,31.33
2023-01-18T16:57:25.359Z,32.33
2023-01-18T17:00:41.818Z,33.03
2023-01-18T17:03:52.631Z,32.27
2023-01-18T17:06:59.355Z,31.27
2023-01-18T17:10:18.879Z,35.97
2023-01-18T17:13:22.705Z,40.90
2023-01-18T17:16:24.989Z,40.00
2023-01-18T17:19:27.841Z,39.23
2023-01-18T17:23:05.238Z,40.30
2023-01-18T17:26:20.791Z,41.50
2023-01-18T17:29:26.068Z,48.30
2023-01-18T17:32:40.662Z,60.97
2023-01-18T17:40:45.125Z,62.23
2023-01-18T17:43:52.610Z,77.50
2023-01-18T17:47:09.664Z,84.30
2023-01-18T17:50:17.522Z,74.30
2023-01-18T17:53:19.886Z,63.83
2023-01-18T17:56:21.988Z,48.83
2023-01-18T17:59:24.434Z,49.17
2023-01-18T18:02:26.807Z,58.63
2023-01-18T18:05:29.489Z,55.83
2023-01-18T18:08:33.272Z,53.10
2023-01-18T18:11:35.708Z,64.67
2023-01-18T18:14:40.097Z,70.43
2023-01-18T18:17:42.450Z,66.97
2023-01-18T18:20:45.258Z,59.80
2023-01-18T18:23:47.546Z,47.43
2023-01-18T18:26:49.682Z,46.17
2023-01-18T18:29:52.050Z,50.40
2023-01-18T18:32:58.243Z,51.90
2023-01-18T18:36:01.649Z,56.53
2023-01-18T18:39:07.717Z,57.47
2023-01-18T18:42:10.036Z,55.77
2023-01-18T18:45:12.334Z,53.40
2023-01-18T18:48:14.995Z,54.57
2023-01-18T18:51:23.842Z,69.97
2023-01-18T18:54:26.726Z,83.73
2023-01-18T18:57:29.476Z,80.73
2023-01-18T19:00:31.888Z,83.10
2023-01-18T19:03:34.925Z,76.37
2023-01-18T19:06:38.248Z,76.83
2023-01-18T19:09:40.394Z,74.20
2023-01-18T19:12:42.876Z,72.60
2023-01-18T19:15:49.058Z,72.27
2023-01-18T19:18:51.569Z,75.50
2023-01-18T19:21:53.799Z,73.73
2023-01-18T19:24:56.252Z,72.37
2023-01-18T19:27:59.483Z,73.37
2023-01-18T19:31:06.456Z,70.67
2023-01-18T19:34:08.464Z,71.70
2023-01-18T19:37:12.523Z,72.17
2023-01-18T19:40:15.979Z,65.13
2023-01-18T19:43:18.424Z,62.80
2023-01-18T19:46:20.685Z,57.97
2023-01-18T19:49:25.053Z,58.80
2023-01-18T19:52:27.351Z,76.17
2023-01-18T19:55:29.887Z,71.90
2023-01-18T19:58:33.452Z,63.40
2023-01-18T20:01:37.388Z,65.83
2023-01-18T20:04:42.146Z,84.43
2023-01-18T20:07:44.632Z,77.70
2023-01-18T20:10:47.344Z,64.73
2023-01-18T20:13:50.596Z,60.20
2023-01-18T20:16:53.339Z,63.53
2023-01-18T20:19:55.894Z,66.83
2023-01-18T20:22:58.379Z,63.40
2023-01-18T20:26:01.220Z,62.23
2023-01-18T20:29:06.690Z,62.67
2023-01-18T20:32:16.119Z,59.20
2023-01-18T20:35:20.097Z,57.23
2023-01-18T20:38:22.482Z,55.57
2023-01-18T20:41:25.388Z,53.57
2023-01-18T20:44:28.560Z,52.30
2023-01-18T20:47:30.834Z,52.90
2023-01-18T20:50:33.427Z,50.00
2023-01-18T20:53:37.934Z,48.20
2023-01-18T20:56:40.675Z,45.47
2023-01-18T20:59:46.072Z,43.10
2023-01-18T21:02:59.124Z,43.13
2023-01-18T21:06:01.634Z,50.47
2023-01-18T21:09:04.372Z,69.37
2023-01-18T21:12:06.603Z,53.60
2023-01-18T21:15:09.857Z,51.57
2023-01-18T21:18:12.564Z,47.77
2023-01-18T21:21:15.832Z,55.33
2023-01-18T21:24:18.804Z,66.83
2023-01-18T21:27:24.735Z,55.73
2023-01-18T21:30:26.830Z,55.13
2023-01-18T21:33:29.629Z,53.97
2023-01-18T21:36:31.960Z,52.30
2023-01-18T21:39:34.600Z,50.63
2023-01-18T21:42:55.202Z,49.73
2023-01-18T21:45:59.277Z,48.97
2023-01-18T21:49:05.627Z,49.00
2023-01-18T21:52:26.433Z,47.57
2023-01-18T21:55:28.556Z,48.57
2023-01-18T21:58:50.638Z,52.90
2023-01-18T22:01:52.885Z,54.83
2023-01-18T22:04:59.202Z,58.33
2023-01-18T22:08:01.728Z,49.67
2023-01-18T22:11:04.248Z,47.43
2023-01-18T22:14:10.315Z,46.00
2023-01-18T22:17:13.305Z,47.63
2023-01-18T22:20:15.820Z,51.53
2023-01-18T22:23:18.096Z,50.30
2023-01-18T22:26:21.485Z,48.03
2023-01-18T22:29:26.912Z,48.93
2023-01-18T22:32:29.024Z,47.30
2023-01-18T22:35:31.802Z,47.80
2023-01-18T22:38:33.931Z,46.57
2023-01-18T22:41:36.347Z,45.73
2023-01-18T22:44:38.315Z,47.10
2023-01-18T22:47:43.753Z,46.30
2023-01-18T22:50:54.870Z,47.17
2023-01-18T22:53:58.368Z,48.57
2023-01-18T22:57:00.392Z,52.37
2023-01-18T23:00:04.513Z,51.97
2023-01-18T23:03:06.537Z,49.37
2023-01-18T23:06:09.119Z,50.40
2023-01-18T23:09:11.702Z,51.33
2023-01-18T23:12:13.976Z,50.50
2023-01-18T23:15:34.688Z,52.07
2023-01-18T23:18:37.023Z,52.50
2023-01-18T23:21:38.987Z,49.30
2023-01-18T23:24:41.338Z,51.10
2023-01-18T23:27:43.332Z,51.63
2023-01-18T23:30:45.631Z,50.77
2023-01-18T23:33:47.777Z,47.43
2023-01-18T23:36:51.182Z,51.50
2023-01-18T23:40:11.602Z,52.60
2023-01-18T23:43:32.588Z,62.23
2023-01-18T23:46:53.152Z,61.40
2023-01-18T23:50:14.156Z,57.83
2023-01-18T23:53:34.691Z,54.83
2023-01-18T23:56:36.938Z,42.13
2023-01-18T23:59:41.495Z,41.07
